sensor_id;sensor_type;location;lat;lon;timestamp;P1;durP1;ratioP1;P2;durP2;ratioP2
52170;SDS011;38689;47.552;18.820;2023-07-29T00:00:42;3.08;;;1.87;;
52170;SDS011;38689;47.552;18.820;2023-07-29T00:03:09;2.70;;;1.70;;
52170;SDS011;38689;47.552;18.820;2023-07-29T00:05:36;3.58;;;1.40;;
52170;SDS011;38689;47.552;18.820;2023-07-29T00:08:02;2.70;;;1.83;;
52170;SDS011;38689;47.552;18.820;2023-07-29T00:10:28;3.47;;;1.45;;
52170;SDS011;38689;47.552;18.820;2023-07-29T00:12:56;3.45;;;1.52;;
52170;SDS011;38689;47.552;18.820;2023-07-29T00:15:22;3.00;;;1.90;;
52170;SDS011;38689;47.552;18.820;2023-07-29T00:17:49;2.62;;;1.60;;
52170;SDS011;38689;47.552;18.820;2023-07-29T00:20:15;2.70;;;1.77;;
52170;SDS011;38689;47.552;18.820;2023-07-29T00:22:41;2.62;;;1.65;;
52170;SDS011;38689;47.552;18.820;2023-07-29T00:25:07;3.05;;;1.67;;
52170;SDS011;38689;47.552;18.820;2023-07-29T00:27:33;2.67;;;1.77;;
52170;SDS011;38689;47.552;18.820;2023-07-29T00:29:59;4.53;;;1.73;;
52170;SDS011;38689;47.552;18.820;2023-07-29T00:32:26;2.67;;;1.73;;
52170;SDS011;38689;47.552;18.820;2023-07-29T00:34:54;2.78;;;1.80;;
52170;SDS011;38689;47.552;18.820;2023-07-29T00:37:20;2.62;;;1.62;;
52170;SDS011;38689;47.552;18.820;2023-07-29T00:39:46;2.53;;;1.60;;
52170;SDS011;38689;47.552;18.820;2023-07-29T00:42:12;4.03;;;2.00;;
52170;SDS011;38689;47.552;18.820;2023-07-29T00:44:38;3.03;;;1.83;;
52170;SDS011;38689;47.552;18.820;2023-07-29T00:47:04;3.30;;;1.70;;
52170;SDS011;38689;47.552;18.820;2023-07-29T00:49:32;2.92;;;1.77;;
52170;SDS011;38689;47.552;18.820;2023-07-29T00:51:58;2.90;;;1.87;;
52170;SDS011;38689;47.552;18.820;2023-07-29T00:54:24;2.55;;;1.80;;
52170;SDS011;38689;47.552;18.820;2023-07-29T00:56:49;3.03;;;1.80;;
52170;SDS011;38689;47.552;18.820;2023-07-29T00:59:16;3.00;;;1.83;;
52170;SDS011;38689;47.552;18.820;2023-07-29T01:01:42;4.68;;;2.00;;
52170;SDS011;38689;47.552;18.820;2023-07-29T01:04:08;3.00;;;1.80;;
52170;SDS011;38689;47.552;18.820;2023-07-29T01:06:37;3.10;;;1.85;;
52170;SDS011;38689;47.552;18.820;2023-07-29T01:09:30;3.35;;;2.28;;
52170;SDS011;38689;47.552;18.820;2023-07-29T01:14:50;3.72;;;2.10;;
52170;SDS011;38689;47.552;18.820;2023-07-29T01:17:46;3.97;;;1.90;;
52170;SDS011;38689;47.552;18.820;2023-07-29T01:20:14;2.70;;;1.87;;
52170;SDS011;38689;47.552;18.820;2023-07-29T01:22:41;3.45;;;2.08;;
52170;SDS011;38689;47.552;18.820;2023-07-29T01:25:07;3.33;;;2.08;;
52170;SDS011;38689;47.552;18.820;2023-07-29T01:27:33;4.07;;;2.40;;
52170;SDS011;38689;47.552;18.820;2023-07-29T01:30:00;3.05;;;2.03;;
52170;SDS011;38689;47.552;18.820;2023-07-29T01:34:57;2.70;;;2.00;;
52170;SDS011;38689;47.552;18.820;2023-07-29T01:37:30;3.00;;;2.05;;
52170;SDS011;38689;47.552;18.820;2023-07-29T01:39:59;4.43;;;2.00;;
52170;SDS011;38689;47.552;18.820;2023-07-29T01:42:25;3.08;;;1.90;;
52170;SDS011;38689;47.552;18.820;2023-07-29T01:44:52;2.95;;;2.03;;
52170;SDS011;38689;47.552;18.820;2023-07-29T01:47:18;3.70;;;2.28;;
52170;SDS011;38689;47.552;18.820;2023-07-29T01:49:44;3.03;;;2.10;;
52170;SDS011;38689;47.552;18.820;2023-07-29T01:52:10;4.72;;;2.55;;
52170;SDS011;38689;47.552;18.820;2023-07-29T01:54:36;3.67;;;2.03;;
52170;SDS011;38689;47.552;18.820;2023-07-29T01:57:02;3.28;;;2.22;;
52170;SDS011;38689;47.552;18.820;2023-07-29T01:59:28;3.42;;;2.03;;
52170;SDS011;38689;47.552;18.820;2023-07-29T02:01:54;4.30;;;2.10;;
52170;SDS011;38689;47.552;18.820;2023-07-29T02:04:20;4.47;;;2.30;;
52170;SDS011;38689;47.552;18.820;2023-07-29T02:06:46;3.80;;;2.33;;
52170;SDS011;38689;47.552;18.820;2023-07-29T02:09:12;3.78;;;2.30;;
52170;SDS011;38689;47.552;18.820;2023-07-29T02:11:38;3.60;;;2.20;;
52170;SDS011;38689;47.552;18.820;2023-07-29T02:14:04;3.83;;;2.25;;
52170;SDS011;38689;47.552;18.820;2023-07-29T02:16:30;5.28;;;2.30;;
52170;SDS011;38689;47.552;18.820;2023-07-29T02:18:59;3.42;;;2.22;;
52170;SDS011;38689;47.552;18.820;2023-07-29T02:21:25;3.53;;;2.30;;
52170;SDS011;38689;47.552;18.820;2023-07-29T02:23:51;4.87;;;2.33;;
52170;SDS011;38689;47.552;18.820;2023-07-29T02:26:17;4.07;;;2.17;;
52170;SDS011;38689;47.552;18.820;2023-07-29T02:28:43;3.60;;;2.20;;
52170;SDS011;38689;47.552;18.820;2023-07-29T02:31:09;3.85;;;2.35;;
52170;SDS011;38689;47.552;18.820;2023-07-29T02:33:39;3.10;;;2.17;;
52170;SDS011;38689;47.552;18.820;2023-07-29T02:36:05;3.67;;;2.40;;
52170;SDS011;38689;47.552;18.820;2023-07-29T02:38:31;3.60;;;2.47;;
52170;SDS011;38689;47.552;18.820;2023-07-29T02:40:56;3.10;;;2.17;;
52170;SDS011;38689;47.552;18.820;2023-07-29T02:43:22;3.95;;;2.40;;
52170;SDS011;38689;47.552;18.820;2023-07-29T02:45:48;3.40;;;2.30;;
52170;SDS011;38689;47.552;18.820;2023-07-29T02:48:14;4.12;;;2.60;;
52170;SDS011;38689;47.552;18.820;2023-07-29T02:50:40;3.55;;;2.30;;
52170;SDS011;38689;47.552;18.820;2023-07-29T02:53:06;3.05;;;2.10;;
52170;SDS011;38689;47.552;18.820;2023-07-29T02:55:32;4.20;;;2.33;;
52170;SDS011;38689;47.552;18.820;2023-07-29T02:57:58;3.20;;;2.22;;
52170;SDS011;38689;47.552;18.820;2023-07-29T03:00:24;3.55;;;2.33;;
52170;SDS011;38689;47.552;18.820;2023-07-29T03:02:50;4.28;;;2.30;;
52170;SDS011;38689;47.552;18.820;2023-07-29T03:05:16;3.15;;;2.10;;
52170;SDS011;38689;47.552;18.820;2023-07-29T03:07:42;3.33;;;2.05;;
52170;SDS011;38689;47.552;18.820;2023-07-29T03:10:08;5.40;;;2.50;;
52170;SDS011;38689;47.552;18.820;2023-07-29T03:12:36;3.58;;;2.40;;
52170;SDS011;38689;47.552;18.820;2023-07-29T03:15:02;3.35;;;2.40;;
52170;SDS011;38689;47.552;18.820;2023-07-29T03:17:29;3.95;;;2.37;;
52170;SDS011;38689;47.552;18.820;2023-07-29T03:19:54;3.75;;;2.25;;
52170;SDS011;38689;47.552;18.820;2023-07-29T03:22:20;4.47;;;2.45;;
52170;SDS011;38689;47.552;18.820;2023-07-29T03:24:46;3.67;;;2.20;;
52170;SDS011;38689;47.552;18.820;2023-07-29T03:27:13;3.40;;;2.40;;
52170;SDS011;38689;47.552;18.820;2023-07-29T03:29:41;4.12;;;2.15;;
52170;SDS011;38689;47.552;18.820;2023-07-29T03:32:07;4.72;;;2.28;;
52170;SDS011;38689;47.552;18.820;2023-07-29T03:34:33;3.78;;;2.40;;
52170;SDS011;38689;47.552;18.820;2023-07-29T03:37:00;3.83;;;2.08;;
52170;SDS011;38689;47.552;18.820;2023-07-29T03:39:26;4.00;;;2.25;;
52170;SDS011;38689;47.552;18.820;2023-07-29T03:41:52;3.42;;;2.20;;
52170;SDS011;38689;47.552;18.820;2023-07-29T03:44:18;3.75;;;2.50;;
52170;SDS011;38689;47.552;18.820;2023-07-29T03:46:44;4.57;;;2.20;;
52170;SDS011;38689;47.552;18.820;2023-07-29T03:49:10;4.85;;;2.30;;
52170;SDS011;38689;47.552;18.820;2023-07-29T03:51:36;3.55;;;2.25;;
52170;SDS011;38689;47.552;18.820;2023-07-29T03:54:02;5.53;;;2.47;;
52170;SDS011;38689;47.552;18.820;2023-07-29T03:56:28;3.70;;;2.40;;
52170;SDS011;38689;47.552;18.820;2023-07-29T03:59:01;3.65;;;2.50;;
52170;SDS011;38689;47.552;18.820;2023-07-29T04:01:29;4.25;;;2.50;;
52170;SDS011;38689;47.552;18.820;2023-07-29T04:03:55;3.15;;;2.17;;
52170;SDS011;38689;47.552;18.820;2023-07-29T04:06:21;3.45;;;2.37;;
52170;SDS011;38689;47.552;18.820;2023-07-29T04:08:47;3.30;;;2.22;;
52170;SDS011;38689;47.552;18.820;2023-07-29T04:11:13;3.65;;;2.40;;
52170;SDS011;38689;47.552;18.820;2023-07-29T04:13:39;4.40;;;2.50;;
52170;SDS011;38689;47.552;18.820;2023-07-29T04:16:05;4.90;;;2.72;;
52170;SDS011;38689;47.552;18.820;2023-07-29T04:18:32;3.70;;;2.58;;
52170;SDS011;38689;47.552;18.820;2023-07-29T04:20:58;3.92;;;2.50;;
52170;SDS011;38689;47.552;18.820;2023-07-29T04:23:24;3.85;;;2.25;;
52170;SDS011;38689;47.552;18.820;2023-07-29T04:25:50;4.62;;;2.62;;
52170;SDS011;38689;47.552;18.820;2023-07-29T04:28:17;4.60;;;2.40;;
52170;SDS011;38689;47.552;18.820;2023-07-29T04:30:43;3.53;;;2.20;;
52170;SDS011;38689;47.552;18.820;2023-07-29T04:33:09;3.78;;;2.50;;
52170;SDS011;38689;47.552;18.820;2023-07-29T04:35:35;3.95;;;2.40;;
52170;SDS011;38689;47.552;18.820;2023-07-29T04:38:01;3.60;;;2.60;;
52170;SDS011;38689;47.552;18.820;2023-07-29T04:40:26;3.85;;;2.50;;
52170;SDS011;38689;47.552;18.820;2023-07-29T04:42:52;4.68;;;2.50;;
52170;SDS011;38689;47.552;18.820;2023-07-29T04:45:18;4.18;;;2.50;;
52170;SDS011;38689;47.552;18.820;2023-07-29T04:47:44;2.97;;;2.10;;
52170;SDS011;38689;47.552;18.820;2023-07-29T04:50:10;3.00;;;2.10;;
52170;SDS011;38689;47.552;18.820;2023-07-29T04:52:36;3.25;;;2.30;;
52170;SDS011;38689;47.552;18.820;2023-07-29T04:55:02;3.00;;;2.22;;
52170;SDS011;38689;47.552;18.820;2023-07-29T04:57:28;3.25;;;2.45;;
52170;SDS011;38689;47.552;18.820;2023-07-29T04:59:54;3.05;;;2.22;;
52170;SDS011;38689;47.552;18.820;2023-07-29T05:02:20;3.92;;;2.08;;
52170;SDS011;38689;47.552;18.820;2023-07-29T05:04:46;4.28;;;3.10;;
52170;SDS011;38689;47.552;18.820;2023-07-29T05:07:12;5.10;;;3.80;;
52170;SDS011;38689;47.552;18.820;2023-07-29T05:09:38;4.70;;;3.47;;
52170;SDS011;38689;47.552;18.820;2023-07-29T05:12:04;3.55;;;2.33;;
52170;SDS011;38689;47.552;18.820;2023-07-29T05:14:30;4.22;;;2.70;;
52170;SDS011;38689;47.552;18.820;2023-07-29T05:16:56;5.45;;;2.17;;
52170;SDS011;38689;47.552;18.820;2023-07-29T05:19:24;4.78;;;2.50;;
52170;SDS011;38689;47.552;18.820;2023-07-29T05:21:50;4.75;;;2.50;;
52170;SDS011;38689;47.552;18.820;2023-07-29T05:24:16;6.85;;;2.35;;
52170;SDS011;38689;47.552;18.820;2023-07-29T05:26:41;3.42;;;2.10;;
52170;SDS011;38689;47.552;18.820;2023-07-29T05:29:07;3.70;;;2.30;;
52170;SDS011;38689;47.552;18.820;2023-07-29T05:31:33;4.82;;;2.30;;
52170;SDS011;38689;47.552;18.820;2023-07-29T05:33:59;3.75;;;2.20;;
52170;SDS011;38689;47.552;18.820;2023-07-29T05:36:25;3.87;;;2.55;;
52170;SDS011;38689;47.552;18.820;2023-07-29T05:38:51;4.43;;;2.75;;
52170;SDS011;38689;47.552;18.820;2023-07-29T05:41:18;5.65;;;2.40;;
52170;SDS011;38689;47.552;18.820;2023-07-29T05:43:43;4.40;;;2.40;;
52170;SDS011;38689;47.552;18.820;2023-07-29T05:46:10;4.30;;;2.37;;
52170;SDS011;38689;47.552;18.820;2023-07-29T05:48:36;3.62;;;2.47;;
52170;SDS011;38689;47.552;18.820;2023-07-29T05:51:02;4.35;;;2.20;;
52170;SDS011;38689;47.552;18.820;2023-07-29T05:53:28;3.28;;;2.12;;
52170;SDS011;38689;47.552;18.820;2023-07-29T05:55:54;3.35;;;2.20;;
52170;SDS011;38689;47.552;18.820;2023-07-29T05:58:20;3.20;;;2.20;;
52170;SDS011;38689;47.552;18.820;2023-07-29T06:00:46;3.67;;;2.30;;
52170;SDS011;38689;47.552;18.820;2023-07-29T06:03:12;3.10;;;2.20;;
52170;SDS011;38689;47.552;18.820;2023-07-29T06:05:39;3.90;;;2.50;;
52170;SDS011;38689;47.552;18.820;2023-07-29T06:08:05;4.07;;;2.40;;
52170;SDS011;38689;47.552;18.820;2023-07-29T06:10:31;3.40;;;2.42;;
52170;SDS011;38689;47.552;18.820;2023-07-29T06:12:56;4.15;;;2.60;;
52170;SDS011;38689;47.552;18.820;2023-07-29T06:15:22;4.28;;;2.70;;
52170;SDS011;38689;47.552;18.820;2023-07-29T06:17:48;4.62;;;2.97;;
52170;SDS011;38689;47.552;18.820;2023-07-29T06:20:14;4.55;;;2.97;;
52170;SDS011;38689;47.552;18.820;2023-07-29T06:22:40;4.07;;;2.87;;
52170;SDS011;38689;47.552;18.820;2023-07-29T06:25:06;6.47;;;3.17;;
52170;SDS011;38689;47.552;18.820;2023-07-29T06:27:33;4.03;;;2.80;;
52170;SDS011;38689;47.552;18.820;2023-07-29T06:29:58;5.05;;;2.60;;
52170;SDS011;38689;47.552;18.820;2023-07-29T06:32:24;4.47;;;2.62;;
52170;SDS011;38689;47.552;18.820;2023-07-29T06:34:51;3.12;;;2.20;;
52170;SDS011;38689;47.552;18.820;2023-07-29T06:37:19;4.50;;;2.50;;
52170;SDS011;38689;47.552;18.820;2023-07-29T06:39:46;3.22;;;2.47;;
52170;SDS011;38689;47.552;18.820;2023-07-29T06:42:12;4.20;;;2.70;;
52170;SDS011;38689;47.552;18.820;2023-07-29T06:44:38;3.65;;;2.15;;
52170;SDS011;38689;47.552;18.820;2023-07-29T06:47:05;3.45;;;2.30;;
52170;SDS011;38689;47.552;18.820;2023-07-29T06:49:31;3.58;;;2.00;;
52170;SDS011;38689;47.552;18.820;2023-07-29T06:51:56;3.92;;;2.12;;
52170;SDS011;38689;47.552;18.820;2023-07-29T06:54:25;3.70;;;2.20;;
52170;SDS011;38689;47.552;18.820;2023-07-29T06:56:52;2.78;;;1.90;;
52170;SDS011;38689;47.552;18.820;2023-07-29T06:59:18;3.95;;;2.05;;
52170;SDS011;38689;47.552;18.820;2023-07-29T07:01:44;2.87;;;1.98;;
52170;SDS011;38689;47.552;18.820;2023-07-29T07:04:09;3.03;;;2.00;;
52170;SDS011;38689;47.552;18.820;2023-07-29T07:06:35;2.53;;;1.80;;
52170;SDS011;38689;47.552;18.820;2023-07-29T07:09:01;2.90;;;1.90;;
52170;SDS011;38689;47.552;18.820;2023-07-29T07:11:28;2.90;;;2.00;;
52170;SDS011;38689;47.552;18.820;2023-07-29T07:13:54;3.25;;;2.00;;
52170;SDS011;38689;47.552;18.820;2023-07-29T07:16:20;4.37;;;2.30;;
52170;SDS011;38689;47.552;18.820;2023-07-29T07:18:47;2.83;;;1.80;;
52170;SDS011;38689;47.552;18.820;2023-07-29T07:21:13;2.75;;;1.85;;
52170;SDS011;38689;47.552;18.820;2023-07-29T07:23:39;2.92;;;2.05;;
52170;SDS011;38689;47.552;18.820;2023-07-29T07:26:05;2.85;;;1.87;;
52170;SDS011;38689;47.552;18.820;2023-07-29T07:28:31;3.00;;;1.80;;
52170;SDS011;38689;47.552;18.820;2023-07-29T07:30:57;4.55;;;2.03;;
52170;SDS011;38689;47.552;18.820;2023-07-29T07:33:23;3.30;;;1.90;;
52170;SDS011;38689;47.552;18.820;2023-07-29T07:35:49;2.50;;;1.70;;
52170;SDS011;38689;47.552;18.820;2023-07-29T07:38:15;4.28;;;1.75;;
52170;SDS011;38689;47.552;18.820;2023-07-29T07:40:40;2.92;;;1.90;;
52170;SDS011;38689;47.552;18.820;2023-07-29T07:43:06;2.67;;;1.80;;
52170;SDS011;38689;47.552;18.820;2023-07-29T07:45:32;2.37;;;1.70;;
52170;SDS011;38689;47.552;18.820;2023-07-29T07:47:58;3.83;;;1.83;;
52170;SDS011;38689;47.552;18.820;2023-07-29T07:50:24;6.65;;;1.90;;
52170;SDS011;38689;47.552;18.820;2023-07-29T07:52:50;3.03;;;1.90;;
52170;SDS011;38689;47.552;18.820;2023-07-29T07:55:16;4.07;;;1.87;;
52170;SDS011;38689;47.552;18.820;2023-07-29T07:57:42;2.55;;;1.60;;
52170;SDS011;38689;47.552;18.820;2023-07-29T08:00:08;2.42;;;1.70;;
52170;SDS011;38689;47.552;18.820;2023-07-29T08:02:35;2.58;;;1.70;;
52170;SDS011;38689;47.552;18.820;2023-07-29T08:05:01;2.35;;;1.62;;
52170;SDS011;38689;47.552;18.820;2023-07-29T08:07:27;2.75;;;1.65;;
52170;SDS011;38689;47.552;18.820;2023-07-29T08:09:53;3.17;;;1.75;;
52170;SDS011;38689;47.552;18.820;2023-07-29T08:12:18;2.30;;;1.65;;
52170;SDS011;38689;47.552;18.820;2023-07-29T08:14:45;2.70;;;1.60;;
52170;SDS011;38689;47.552;18.820;2023-07-29T08:17:10;2.75;;;1.70;;
52170;SDS011;38689;47.552;18.820;2023-07-29T08:19:38;3.85;;;1.87;;
52170;SDS011;38689;47.552;18.820;2023-07-29T08:22:04;3.35;;;1.80;;
52170;SDS011;38689;47.552;18.820;2023-07-29T08:24:30;2.37;;;1.60;;
52170;SDS011;38689;47.552;18.820;2023-07-29T08:26:56;2.95;;;1.60;;
52170;SDS011;38689;47.552;18.820;2023-07-29T08:29:22;5.35;;;1.60;;
52170;SDS011;38689;47.552;18.820;2023-07-29T08:31:47;2.85;;;1.80;;
52170;SDS011;38689;47.552;18.820;2023-07-29T08:34:14;2.60;;;1.67;;
52170;SDS011;38689;47.552;18.820;2023-07-29T08:36:40;2.17;;;1.50;;
52170;SDS011;38689;47.552;18.820;2023-07-29T08:39:06;2.08;;;1.35;;
52170;SDS011;38689;47.552;18.820;2023-07-29T08:41:37;2.95;;;2.00;;
52170;SDS011;38689;47.552;18.820;2023-07-29T08:44:12;1.58;;;1.20;;
52170;SDS011;38689;47.552;18.820;2023-07-29T08:46:47;2.17;;;1.40;;
52170;SDS011;38689;47.552;18.820;2023-07-29T08:49:14;2.22;;;1.42;;
52170;SDS011;38689;47.552;18.820;2023-07-29T08:51:44;1.90;;;1.12;;
52170;SDS011;38689;47.552;18.820;2023-07-29T08:54:12;2.25;;;1.55;;
52170;SDS011;38689;47.552;18.820;2023-07-29T08:56:40;2.00;;;1.30;;
52170;SDS011;38689;47.552;18.820;2023-07-29T08:59:07;1.60;;;1.02;;
52170;SDS011;38689;47.552;18.820;2023-07-29T09:01:33;3.12;;;1.40;;
52170;SDS011;38689;47.552;18.820;2023-07-29T09:03:59;2.62;;;1.10;;
52170;SDS011;38689;47.552;18.820;2023-07-29T09:06:26;2.33;;;1.23;;
52170;SDS011;38689;47.552;18.820;2023-07-29T09:08:53;1.75;;;1.20;;
52170;SDS011;38689;47.552;18.820;2023-07-29T09:11:21;1.85;;;1.25;;
52170;SDS011;38689;47.552;18.820;2023-07-29T09:13:48;2.00;;;1.20;;
52170;SDS011;38689;47.552;18.820;2023-07-29T09:16:14;2.15;;;1.20;;
52170;SDS011;38689;47.552;18.820;2023-07-29T09:18:41;2.80;;;1.20;;
52170;SDS011;38689;47.552;18.820;2023-07-29T09:21:06;1.80;;;1.20;;
52170;SDS011;38689;47.552;18.820;2023-07-29T09:23:40;1.85;;;1.10;;
52170;SDS011;38689;47.552;18.820;2023-07-29T09:26:07;2.25;;;1.20;;
52170;SDS011;38689;47.552;18.820;2023-07-29T09:28:34;1.90;;;1.10;;
52170;SDS011;38689;47.552;18.820;2023-07-29T09:31:00;2.05;;;1.00;;
52170;SDS011;38689;47.552;18.820;2023-07-29T09:33:28;1.85;;;1.20;;
52170;SDS011;38689;47.552;18.820;2023-07-29T09:35:54;1.67;;;1.12;;
52170;SDS011;38689;47.552;18.820;2023-07-29T09:38:26;2.83;;;1.20;;
52170;SDS011;38689;47.552;18.820;2023-07-29T09:40:54;1.77;;;1.13;;
52170;SDS011;38689;47.552;18.820;2023-07-29T09:43:24;1.37;;;1.00;;
52170;SDS011;38689;47.552;18.820;2023-07-29T09:45:51;1.92;;;1.12;;
52170;SDS011;38689;47.552;18.820;2023-07-29T09:48:19;1.73;;;1.20;;
52170;SDS011;38689;47.552;18.820;2023-07-29T09:50:48;1.80;;;1.17;;
52170;SDS011;38689;47.552;18.820;2023-07-29T09:53:14;1.80;;;1.20;;
52170;SDS011;38689;47.552;18.820;2023-07-29T09:55:40;1.50;;;1.10;;
52170;SDS011;38689;47.552;18.820;2023-07-29T09:58:11;1.55;;;1.20;;
52170;SDS011;38689;47.552;18.820;2023-07-29T10:00:37;1.90;;;1.30;;
52170;SDS011;38689;47.552;18.820;2023-07-29T10:03:05;2.47;;;1.20;;
52170;SDS011;38689;47.552;18.820;2023-07-29T10:05:32;2.40;;;1.25;;
52170;SDS011;38689;47.552;18.820;2023-07-29T10:08:00;3.35;;;1.20;;
52170;SDS011;38689;47.552;18.820;2023-07-29T10:10:26;1.85;;;1.27;;
52170;SDS011;38689;47.552;18.820;2023-07-29T10:12:54;1.65;;;1.20;;
52170;SDS011;38689;47.552;18.820;2023-07-29T10:15:20;2.80;;;1.30;;
52170;SDS011;38689;47.552;18.820;2023-07-29T10:17:46;1.92;;;1.30;;
52170;SDS011;38689;47.552;18.820;2023-07-29T10:20:12;1.90;;;1.30;;
52170;SDS011;38689;47.552;18.820;2023-07-29T10:22:42;1.95;;;1.20;;
52170;SDS011;38689;47.552;18.820;2023-07-29T10:25:10;2.55;;;1.40;;
52170;SDS011;38689;47.552;18.820;2023-07-29T10:30:16;1.87;;;1.27;;
52170;SDS011;38689;47.552;18.820;2023-07-29T10:32:42;2.78;;;1.40;;
52170;SDS011;38689;47.552;18.820;2023-07-29T10:35:10;1.90;;;1.10;;
52170;SDS011;38689;47.552;18.820;2023-07-29T10:37:37;1.98;;;1.25;;
52170;SDS011;38689;47.552;18.820;2023-07-29T10:40:05;5.68;;;1.17;;
52170;SDS011;38689;47.552;18.820;2023-07-29T10:42:32;3.12;;;1.35;;
52170;SDS011;38689;47.552;18.820;2023-07-29T10:44:58;1.75;;;1.10;;
52170;SDS011;38689;47.552;18.820;2023-07-29T10:47:25;2.00;;;1.37;;
52170;SDS011;38689;47.552;18.820;2023-07-29T10:49:53;2.35;;;1.37;;
52170;SDS011;38689;47.552;18.820;2023-07-29T10:55:01;2.85;;;1.30;;
52170;SDS011;38689;47.552;18.820;2023-07-29T10:57:33;2.58;;;1.10;;
52170;SDS011;38689;47.552;18.820;2023-07-29T11:00:00;1.48;;;0.90;;
52170;SDS011;38689;47.552;18.820;2023-07-29T11:02:37;1.92;;;1.05;;
52170;SDS011;38689;47.552;18.820;2023-07-29T11:05:07;1.87;;;1.00;;
52170;SDS011;38689;47.552;18.820;2023-07-29T11:07:49;3.20;;;1.17;;
52170;SDS011;38689;47.552;18.820;2023-07-29T11:10:15;1.70;;;1.10;;
52170;SDS011;38689;47.552;18.820;2023-07-29T11:12:48;2.30;;;1.02;;
52170;SDS011;38689;47.552;18.820;2023-07-29T11:15:23;1.80;;;1.00;;
52170;SDS011;38689;47.552;18.820;2023-07-29T11:17:52;1.75;;;0.75;;
52170;SDS011;38689;47.552;18.820;2023-07-29T11:20:25;1.90;;;1.20;;
52170;SDS011;38689;47.552;18.820;2023-07-29T11:22:53;1.85;;;1.15;;
52170;SDS011;38689;47.552;18.820;2023-07-29T11:25:20;1.67;;;0.90;;
52170;SDS011;38689;47.552;18.820;2023-07-29T11:27:48;1.65;;;0.85;;
52170;SDS011;38689;47.552;18.820;2023-07-29T11:30:14;2.30;;;1.00;;
52170;SDS011;38689;47.552;18.820;2023-07-29T11:32:41;2.15;;;1.00;;
52170;SDS011;38689;47.552;18.820;2023-07-29T11:35:09;2.17;;;0.98;;
52170;SDS011;38689;47.552;18.820;2023-07-29T11:37:45;1.67;;;1.00;;
52170;SDS011;38689;47.552;18.820;2023-07-29T11:40:15;1.80;;;1.17;;
52170;SDS011;38689;47.552;18.820;2023-07-29T11:42:41;1.33;;;0.95;;
52170;SDS011;38689;47.552;18.820;2023-07-29T11:45:08;1.65;;;1.00;;
52170;SDS011;38689;47.552;18.820;2023-07-29T11:47:35;3.83;;;0.80;;
52170;SDS011;38689;47.552;18.820;2023-07-29T11:50:03;1.70;;;1.05;;
52170;SDS011;38689;47.552;18.820;2023-07-29T11:52:35;1.45;;;1.05;;
52170;SDS011;38689;47.552;18.820;2023-07-29T11:55:02;1.70;;;1.08;;
52170;SDS011;38689;47.552;18.820;2023-07-29T11:57:29;1.60;;;0.98;;
52170;SDS011;38689;47.552;18.820;2023-07-29T11:59:56;1.35;;;0.90;;
52170;SDS011;38689;47.552;18.820;2023-07-29T12:02:22;1.30;;;0.90;;
52170;SDS011;38689;47.552;18.820;2023-07-29T12:04:49;1.65;;;1.00;;
52170;SDS011;38689;47.552;18.820;2023-07-29T12:07:16;1.40;;;1.00;;
52170;SDS011;38689;47.552;18.820;2023-07-29T12:09:42;2.65;;;1.10;;
52170;SDS011;38689;47.552;18.820;2023-07-29T12:12:09;1.67;;;1.05;;
52170;SDS011;38689;47.552;18.820;2023-07-29T12:14:35;2.25;;;1.10;;
52170;SDS011;38689;47.552;18.820;2023-07-29T12:17:01;2.30;;;1.15;;
52170;SDS011;38689;47.552;18.820;2023-07-29T12:19:36;2.17;;;1.30;;
52170;SDS011;38689;47.552;18.820;2023-07-29T12:22:03;1.60;;;1.10;;
52170;SDS011;38689;47.552;18.820;2023-07-29T12:24:30;1.90;;;1.10;;
52170;SDS011;38689;47.552;18.820;2023-07-29T12:26:57;1.90;;;1.15;;
52170;SDS011;38689;47.552;18.820;2023-07-29T12:29:23;4.28;;;1.50;;
52170;SDS011;38689;47.552;18.820;2023-07-29T12:31:56;1.98;;;1.10;;
52170;SDS011;38689;47.552;18.820;2023-07-29T12:34:25;1.67;;;1.10;;
52170;SDS011;38689;47.552;18.820;2023-07-29T12:36:51;2.25;;;1.23;;
52170;SDS011;38689;47.552;18.820;2023-07-29T12:39:18;1.62;;;1.10;;
52170;SDS011;38689;47.552;18.820;2023-07-29T12:41:45;1.50;;;1.02;;
52170;SDS011;38689;47.552;18.820;2023-07-29T12:44:11;1.98;;;1.35;;
52170;SDS011;38689;47.552;18.820;2023-07-29T12:46:37;1.98;;;1.20;;
52170;SDS011;38689;47.552;18.820;2023-07-29T12:49:03;2.05;;;1.10;;
52170;SDS011;38689;47.552;18.820;2023-07-29T12:51:29;1.95;;;1.00;;
52170;SDS011;38689;47.552;18.820;2023-07-29T12:53:55;1.98;;;1.10;;
52170;SDS011;38689;47.552;18.820;2023-07-29T12:56:21;1.87;;;1.25;;
52170;SDS011;38689;47.552;18.820;2023-07-29T12:58:47;2.20;;;1.33;;
52170;SDS011;38689;47.552;18.820;2023-07-29T13:01:13;1.92;;;1.40;;
52170;SDS011;38689;47.552;18.820;2023-07-29T13:03:43;1.80;;;1.30;;
52170;SDS011;38689;47.552;18.820;2023-07-29T13:06:09;2.22;;;1.50;;
52170;SDS011;38689;47.552;18.820;2023-07-29T13:08:35;2.10;;;1.20;;
52170;SDS011;38689;47.552;18.820;2023-07-29T13:11:01;1.77;;;0.98;;
52170;SDS011;38689;47.552;18.820;2023-07-29T13:13:28;2.22;;;1.10;;
52170;SDS011;38689;47.552;18.820;2023-07-29T13:15:54;1.83;;;1.00;;
52170;SDS011;38689;47.552;18.820;2023-07-29T13:18:22;2.05;;;1.00;;
52170;SDS011;38689;47.552;18.820;2023-07-29T13:20:48;1.95;;;1.30;;
52170;SDS011;38689;47.552;18.820;2023-07-29T13:23:14;2.00;;;1.10;;
52170;SDS011;38689;47.552;18.820;2023-07-29T13:25:40;1.77;;;0.90;;
52170;SDS011;38689;47.552;18.820;2023-07-29T13:28:06;2.00;;;1.40;;
52170;SDS011;38689;47.552;18.820;2023-07-29T13:30:32;1.92;;;1.30;;
52170;SDS011;38689;47.552;18.820;2023-07-29T13:32:58;1.75;;;1.10;;
52170;SDS011;38689;47.552;18.820;2023-07-29T13:35:24;1.58;;;1.08;;
52170;SDS011;38689;47.552;18.820;2023-07-29T13:37:51;1.50;;;0.95;;
52170;SDS011;38689;47.552;18.820;2023-07-29T13:40:16;1.67;;;1.10;;
52170;SDS011;38689;47.552;18.820;2023-07-29T13:42:42;1.73;;;1.10;;
52170;SDS011;38689;47.552;18.820;2023-07-29T13:45:08;2.00;;;1.08;;
52170;SDS011;38689;47.552;18.820;2023-07-29T13:47:34;1.58;;;0.85;;
52170;SDS011;38689;47.552;18.820;2023-07-29T13:50:00;1.85;;;1.00;;
52170;SDS011;38689;47.552;18.820;2023-07-29T13:52:27;1.95;;;1.23;;
52170;SDS011;38689;47.552;18.820;2023-07-29T13:54:53;1.10;;;0.80;;
52170;SDS011;38689;47.552;18.820;2023-07-29T13:57:19;2.03;;;0.90;;
52170;SDS011;38689;47.552;18.820;2023-07-29T13:59:45;1.98;;;1.33;;
52170;SDS011;38689;47.552;18.820;2023-07-29T14:02:11;1.65;;;1.00;;
52170;SDS011;38689;47.552;18.820;2023-07-29T14:04:37;2.00;;;1.30;;
52170;SDS011;38689;47.552;18.820;2023-07-29T14:07:03;1.75;;;1.23;;
52170;SDS011;38689;47.552;18.820;2023-07-29T14:09:29;2.08;;;1.02;;
52170;SDS011;38689;47.552;18.820;2023-07-29T14:11:55;1.55;;;0.90;;
52170;SDS011;38689;47.552;18.820;2023-07-29T14:14:21;2.95;;;0.95;;
52170;SDS011;38689;47.552;18.820;2023-07-29T14:16:47;1.52;;;1.20;;
52170;SDS011;38689;47.552;18.820;2023-07-29T14:19:14;1.73;;;0.95;;
52170;SDS011;38689;47.552;18.820;2023-07-29T14:21:40;2.05;;;1.15;;
52170;SDS011;38689;47.552;18.820;2023-07-29T14:24:06;1.98;;;1.20;;
52170;SDS011;38689;47.552;18.820;2023-07-29T14:26:32;2.20;;;1.33;;
52170;SDS011;38689;47.552;18.820;2023-07-29T14:28:58;1.30;;;0.80;;
52170;SDS011;38689;47.552;18.820;2023-07-29T14:31:24;1.80;;;1.10;;
52170;SDS011;38689;47.552;18.820;2023-07-29T14:33:50;1.60;;;1.17;;
52170;SDS011;38689;47.552;18.820;2023-07-29T14:36:16;2.03;;;1.00;;
52170;SDS011;38689;47.552;18.820;2023-07-29T14:38:42;2.08;;;1.15;;
52170;SDS011;38689;47.552;18.820;2023-07-29T14:41:08;1.75;;;1.10;;